createdAt,value
2018-12-22T00:01:40.396Z,1.03
2018-12-22T00:04:13.671Z,0.50
2018-12-22T00:06:56.403Z,0.37
2018-12-22T00:09:46.594Z,0.50
2018-12-22T00:15:27.582Z,0.87
2018-12-22T00:18:10.038Z,1.50
2018-12-22T00:20:45.716Z,1.13
2018-12-22T00:23:30.973Z,0.30
2018-12-22T00:26:12.576Z,0.40
2018-12-22T00:28:58.203Z,0.47
2018-12-22T00:31:44.116Z,1.30
2018-12-22T00:37:37.290Z,0.40
2018-12-22T00:40:12.720Z,0.60
2018-12-22T00:42:54.208Z,0.60
2018-12-22T00:45:29.477Z,0.43
2018-12-22T00:48:11.559Z,0.67
2018-12-22T00:50:48.294Z,0.93
2018-12-22T00:53:22.447Z,0.43
2018-12-22T00:55:55.144Z,0.80
2018-12-22T00:58:39.103Z,0.30
2018-12-22T01:01:10.679Z,0.73
2018-12-22T01:04:00.080Z,0.70
2018-12-22T01:06:43.196Z,2.23
2018-12-22T01:09:25.646Z,0.30
2018-12-22T01:12:00.583Z,0.90
2018-12-22T01:14:46.212Z,0.50
2018-12-22T01:17:28.494Z,0.47
2018-12-22T01:20:01.988Z,0.50
2018-12-22T01:22:41.923Z,0.40
2018-12-22T01:25:17.353Z,0.50
2018-12-22T01:28:05.383Z,0.57
2018-12-22T01:30:42.191Z,0.30
2018-12-22T01:33:14.585Z,1.47
2018-12-22T01:35:56.839Z,0.67
2018-12-22T01:38:38.715Z,0.30
2018-12-22T01:41:12.054Z,1.77
2018-12-22T01:43:53.860Z,0.83
2018-12-22T01:46:35.691Z,0.30
2018-12-22T01:49:22.725Z,0.47
2018-12-22T01:52:04.654Z,0.20
2018-12-22T01:54:46.811Z,0.30
2018-12-22T01:57:32.821Z,0.20
2018-12-22T02:00:07.652Z,0.20
2018-12-22T02:02:50.657Z,0.47
2018-12-22T02:05:32.632Z,0.40
2018-12-22T02:08:16.518Z,0.33
2018-12-22T02:10:49.274Z,1.00
2018-12-22T02:13:24.799Z,0.73
2018-12-22T02:16:06.464Z,0.80
2018-12-22T02:18:52.419Z,1.47
2018-12-22T02:21:25.718Z,0.27
2018-12-22T02:24:08.457Z,0.30
2018-12-22T02:26:50.476Z,0.53
2018-12-22T02:29:32.981Z,0.30
2018-12-22T02:32:13.991Z,0.20
2018-12-22T02:34:47.816Z,0.40
2018-12-22T02:37:29.127Z,0.40
2018-12-22T02:40:06.178Z,0.43
2018-12-22T02:42:48.096Z,0.43
2018-12-22T02:45:24.011Z,0.30
2018-12-22T02:48:10.318Z,1.47
2018-12-22T02:50:43.759Z,0.33
2018-12-22T02:53:23.095Z,0.40
2018-12-22T02:56:04.497Z,0.30
2018-12-22T02:58:46.513Z,0.30
2018-12-22T03:01:20.650Z,1.13
2018-12-22T03:03:59.489Z,1.00
2018-12-22T03:06:47.782Z,0.30
2018-12-22T03:09:29.437Z,0.40
2018-12-22T03:12:02.047Z,0.93
2018-12-22T03:14:43.873Z,0.43
2018-12-22T03:17:16.642Z,0.40
2018-12-22T03:19:50.502Z,0.67
2018-12-22T03:22:36.190Z,2.27
2018-12-22T03:25:18.107Z,0.50
2018-12-22T03:28:00.156Z,0.33
2018-12-22T03:30:33.280Z,1.00
2018-12-22T03:33:14.357Z,0.30
2018-12-22T03:35:56.297Z,0.70
2018-12-22T03:38:38.109Z,0.20
2018-12-22T03:41:11.253Z,0.30
2018-12-22T03:43:59.570Z,0.50
2018-12-22T03:46:46.534Z,0.40
2018-12-22T03:49:33.148Z,0.43
2018-12-22T03:52:16.213Z,0.93
2018-12-22T03:55:03.017Z,0.40
2018-12-22T03:57:39.020Z,1.63
2018-12-22T04:00:11.747Z,0.50
2018-12-22T04:02:53.549Z,0.63
2018-12-22T04:05:37.339Z,0.53
2018-12-22T04:08:19.287Z,0.67
2018-12-22T04:10:51.642Z,3.63
2018-12-22T04:13:32.827Z,0.50
2018-12-22T04:16:15.090Z,0.50
2018-12-22T04:18:56.748Z,0.60
2018-12-22T04:21:29.923Z,0.70
2018-12-22T04:24:10.994Z,0.80
2018-12-22T04:26:52.801Z,0.50
2018-12-22T04:29:33.993Z,0.60
2018-12-22T04:32:15.812Z,0.43
2018-12-22T04:34:57.769Z,0.67
2018-12-22T04:37:31.034Z,0.57
2018-12-22T04:40:03.405Z,1.13
2018-12-22T04:42:45.423Z,0.40
2018-12-22T04:45:26.555Z,0.50
2018-12-22T04:48:08.635Z,0.63
2018-12-22T04:50:41.982Z,0.30
2018-12-22T04:53:23.731Z,0.40
2018-12-22T04:56:05.635Z,0.30
2018-12-22T04:58:41.248Z,0.47
2018-12-22T05:01:23.072Z,0.40
2018-12-22T05:04:05.089Z,0.80
2018-12-22T05:06:46.980Z,0.97
2018-12-22T05:09:25.991Z,0.40
2018-12-22T05:11:58.615Z,1.03
2018-12-22T05:14:40.475Z,1.30
2018-12-22T05:17:22.425Z,0.40
2018-12-22T05:19:55.880Z,1.03
2018-12-22T05:22:26.623Z,0.90
2018-12-22T05:25:08.297Z,0.40
2018-12-22T05:27:44.590Z,0.40
2018-12-22T05:30:17.617Z,0.57
2018-12-22T05:32:59.276Z,0.80
2018-12-22T05:35:41.277Z,0.77
2018-12-22T05:38:23.220Z,0.93
2018-12-22T05:40:56.483Z,0.67
2018-12-22T05:43:38.364Z,0.80
2018-12-22T05:46:11.560Z,0.67
2018-12-22T05:48:42.595Z,1.00
2018-12-22T05:51:24.715Z,0.50
2018-12-22T05:54:06.661Z,0.97
2018-12-22T05:56:48.548Z,0.40
2018-12-22T05:59:22.608Z,0.67
2018-12-22T06:01:55.833Z,0.40
2018-12-22T06:04:37.600Z,1.00
2018-12-22T06:07:19.527Z,0.80
2018-12-22T06:09:52.657Z,1.00
2018-12-22T06:12:34.685Z,0.93
2018-12-22T06:15:16.440Z,1.30
2018-12-22T06:17:58.219Z,0.60
2018-12-22T06:20:31.435Z,1.97
2018-12-22T06:23:13.367Z,0.73
2018-12-22T06:25:55.307Z,0.83
2018-12-22T06:28:37.332Z,0.70
2018-12-22T06:31:10.376Z,0.40
2018-12-22T06:33:52.300Z,0.87
2018-12-22T06:36:34.208Z,0.70
2018-12-22T06:39:16.304Z,0.63
2018-12-22T06:41:48.640Z,0.43
2018-12-22T06:44:23.467Z,0.43
2018-12-22T06:47:04.852Z,1.63
2018-12-22T06:49:46.985Z,0.80
2018-12-22T06:52:20.132Z,0.87
2018-12-22T06:55:02.240Z,0.57
2018-12-22T06:57:37.427Z,0.70
2018-12-22T07:00:17.574Z,0.97
2018-12-22T07:02:47.475Z,1.20
2018-12-22T07:05:29.488Z,0.57
2018-12-22T07:08:11.283Z,0.80
2018-12-22T07:10:44.495Z,0.80
2018-12-22T07:13:26.271Z,2.07
2018-12-22T07:16:08.256Z,1.43
2018-12-22T07:18:54.996Z,0.83
2018-12-22T07:21:28.231Z,0.40
2018-12-22T07:24:01.290Z,0.77
2018-12-22T07:26:43.008Z,1.33
2018-12-22T07:29:18.179Z,0.50
2018-12-22T07:31:51.334Z,1.50
2018-12-22T07:34:33.194Z,0.30
2018-12-22T07:37:14.258Z,1.93
2018-12-22T07:39:47.312Z,1.40
2018-12-22T07:42:29.175Z,1.53
2018-12-22T07:45:11.072Z,0.43
2018-12-22T07:47:48.923Z,0.47
2018-12-22T07:50:23.788Z,1.30
2018-12-22T07:53:05.256Z,0.87
2018-12-22T07:55:47.348Z,1.53
2018-12-22T07:58:29.184Z,1.03
2018-12-22T08:01:03.639Z,1.63
2018-12-22T08:03:45.672Z,1.13
2018-12-22T08:06:27.619Z,1.13
2018-12-22T08:09:09.503Z,2.97
2018-12-22T08:11:45.088Z,0.53
2018-12-22T08:14:28.699Z,2.83
2018-12-22T08:17:10.419Z,1.53
2018-12-22T08:19:50.403Z,2.20
2018-12-22T08:22:31.714Z,0.83
2018-12-22T08:25:18.608Z,1.63
2018-12-22T08:28:00.374Z,2.10
2018-12-22T08:30:32.814Z,2.17
2018-12-22T08:33:15.101Z,2.03
2018-12-22T08:35:57.116Z,1.77
2018-12-22T08:38:38.287Z,1.50
2018-12-22T08:41:11.688Z,1.80
2018-12-22T08:43:53.320Z,1.23
2018-12-22T08:46:34.391Z,0.63
2018-12-22T08:49:15.480Z,1.37
2018-12-22T08:51:48.630Z,1.13
2018-12-22T08:54:30.436Z,1.30
2018-12-22T08:57:02.813Z,2.03
2018-12-22T08:59:44.471Z,2.97
2018-12-22T09:02:37.242Z,0.83
2018-12-22T09:05:08.299Z,2.43
2018-12-22T09:07:51.678Z,4.50
2018-12-22T09:10:27.212Z,2.23
2018-12-22T09:13:08.585Z,2.43
2018-12-22T09:15:50.605Z,2.50
2018-12-22T09:18:25.899Z,2.33
2018-12-22T09:21:15.774Z,1.40
2018-12-22T09:26:57.312Z,3.63
2018-12-22T09:29:38.935Z,5.07
2018-12-22T09:32:21.165Z,3.47
2018-12-22T09:35:20.496Z,3.47
2018-12-22T09:38:01.824Z,0.70
2018-12-22T09:40:34.340Z,2.00
2018-12-22T09:43:18.579Z,2.87
2018-12-22T09:46:01.612Z,1.47
2018-12-22T09:48:43.635Z,2.33
2018-12-22T09:51:16.884Z,4.13
2018-12-22T09:54:00.856Z,3.00
2018-12-22T09:56:42.881Z,2.47
2018-12-22T09:59:30.975Z,1.27
2018-12-22T10:05:18.437Z,3.70
2018-12-22T10:07:54.229Z,3.50
2018-12-22T10:10:26.639Z,1.53
2018-12-22T10:13:14.423Z,3.43
2018-12-22T10:15:56.337Z,3.67
2018-12-22T10:18:38.336Z,2.60
2018-12-22T10:21:11.467Z,2.33
2018-12-22T10:23:42.443Z,4.30
2018-12-22T10:26:15.749Z,2.47
2018-12-22T10:31:47.817Z,5.13
2018-12-22T10:34:29.012Z,4.30
2018-12-22T10:37:10.943Z,1.63
2018-12-22T10:39:53.112Z,3.23
2018-12-22T10:42:34.702Z,3.87
2018-12-22T10:45:16.664Z,3.50
2018-12-22T10:47:58.737Z,4.43
2018-12-22T10:50:32.887Z,2.93
2018-12-22T10:53:14.926Z,3.20
2018-12-22T10:55:58.957Z,2.50
2018-12-22T10:58:40.578Z,3.03
2018-12-22T11:01:27.453Z,3.33
2018-12-22T11:04:11.713Z,4.60
2018-12-22T11:06:53.326Z,4.07
2018-12-22T11:09:36.187Z,3.60
2018-12-22T11:12:23.116Z,3.47
2018-12-22T11:14:58.615Z,3.53
2018-12-22T11:17:40.058Z,3.50
2018-12-22T11:20:22.123Z,5.33
2018-12-22T11:23:04.044Z,5.00
2018-12-22T11:25:45.650Z,6.40
2018-12-22T11:28:27.168Z,5.33
2018-12-22T11:31:01.653Z,5.97
2018-12-22T11:33:37.460Z,6.13
2018-12-22T11:36:19.439Z,5.80
2018-12-22T11:39:01.368Z,4.47
2018-12-22T11:41:34.080Z,3.40
2018-12-22T11:44:18.255Z,3.73
2018-12-22T11:47:01.859Z,4.77
2018-12-22T11:49:41.867Z,4.50
2018-12-22T11:52:23.570Z,4.50
2018-12-22T11:55:05.772Z,3.70
2018-12-22T11:57:41.129Z,5.00
2018-12-22T12:00:14.347Z,4.00
2018-12-22T12:03:00.335Z,1.30
2018-12-22T12:05:42.039Z,4.97
2018-12-22T12:08:24.609Z,4.50
2018-12-22T12:10:57.183Z,4.47
2018-12-22T12:13:32.683Z,5.17
2018-12-22T12:16:19.029Z,5.60
2018-12-22T12:19:05.062Z,6.23
2018-12-22T12:21:40.835Z,3.77
2018-12-22T12:24:22.418Z,5.80
2018-12-22T12:27:03.676Z,7.90
2018-12-22T12:29:45.497Z,5.83
2018-12-22T12:32:27.368Z,5.27
2018-12-22T12:35:08.419Z,8.10
2018-12-22T12:37:50.516Z,7.47
2018-12-22T12:40:23.571Z,4.37
2018-12-22T12:43:05.723Z,4.40
2018-12-22T12:45:47.520Z,4.30
2018-12-22T12:48:34.843Z,4.23
2018-12-22T12:51:24.779Z,4.03
2018-12-22T12:54:06.836Z,4.70
2018-12-22T12:56:51.692Z,5.30
2018-12-22T12:59:33.813Z,3.67
2018-12-22T13:02:08.788Z,6.57
2018-12-22T13:04:50.930Z,4.10
2018-12-22T13:07:33.660Z,2.47
2018-12-22T13:10:17.486Z,2.73
2018-12-22T13:13:15.846Z,4.43
2018-12-22T13:15:49.084Z,3.57
2018-12-22T13:18:32.803Z,3.80
2018-12-22T13:21:08.132Z,4.80
2018-12-22T13:23:39.122Z,5.27
2018-12-22T13:26:12.239Z,5.17
2018-12-22T13:28:54.821Z,5.03
2018-12-22T13:31:29.958Z,8.70
2018-12-22T13:34:11.179Z,5.80
2018-12-22T13:36:53.133Z,3.37
2018-12-22T13:39:30.941Z,2.83
2018-12-22T13:42:03.525Z,2.73
2018-12-22T13:44:45.429Z,4.67
2018-12-22T13:47:26.607Z,4.40
2018-12-22T13:49:59.612Z,4.87
2018-12-22T13:52:41.403Z,4.07
2018-12-22T13:55:23.436Z,3.37
2018-12-22T13:58:05.319Z,4.90
2018-12-22T14:00:43.797Z,5.00
2018-12-22T14:03:34.552Z,5.57
2018-12-22T14:06:20.439Z,3.43
2018-12-22T14:09:01.927Z,3.00
2018-12-22T14:14:40.868Z,5.83
2018-12-22T14:17:26.582Z,5.03
2018-12-22T14:20:07.728Z,4.17
2018-12-22T14:22:42.966Z,2.60
2018-12-22T14:25:26.452Z,6.20
2018-12-22T14:27:59.299Z,7.43
2018-12-22T14:30:35.310Z,6.87
2018-12-22T14:33:17.199Z,9.23
2018-12-22T14:36:01.127Z,4.47
2018-12-22T14:38:42.823Z,6.23
2018-12-22T14:41:16.160Z,4.23
2018-12-22T14:43:57.993Z,5.90
2018-12-22T14:46:39.151Z,3.60
2018-12-22T14:49:23.399Z,7.00
2018-12-22T14:51:56.395Z,8.83
2018-12-22T14:54:31.633Z,6.10
2018-12-22T14:57:13.252Z,5.03
2018-12-22T14:59:54.395Z,9.47
2018-12-22T15:02:40.240Z,10.43
2018-12-22T15:05:16.011Z,5.07
2018-12-22T15:07:57.303Z,6.93
2018-12-22T15:10:45.562Z,8.40
2018-12-22T15:13:28.921Z,4.70
2018-12-22T15:16:25.423Z,7.37
2018-12-22T15:19:11.820Z,8.27
2018-12-22T15:21:45.156Z,4.63
2018-12-22T15:24:28.322Z,5.50
2018-12-22T15:27:02.263Z,6.07
2018-12-22T15:29:48.215Z,4.00
2018-12-22T15:32:31.499Z,5.13
2018-12-22T15:35:13.180Z,4.53
2018-12-22T15:37:55.271Z,6.30
2018-12-22T15:40:28.512Z,4.27
2018-12-22T15:43:10.400Z,6.87
2018-12-22T15:45:52.395Z,9.67
2018-12-22T15:48:36.421Z,6.53
2018-12-22T15:51:10.520Z,4.53
2018-12-22T15:53:52.326Z,7.03
2018-12-22T15:56:52.665Z,4.13
2018-12-22T15:59:34.152Z,5.83
2018-12-22T16:02:10.734Z,10.00
2018-12-22T16:04:51.951Z,6.50
2018-12-22T16:07:35.032Z,5.43
2018-12-22T16:10:12.851Z,7.73
2018-12-22T16:12:54.187Z,6.23
2018-12-22T16:15:37.123Z,7.33
2018-12-22T16:18:23.002Z,5.23
2018-12-22T16:21:05.278Z,5.47
2018-12-22T16:23:48.268Z,4.33
2018-12-22T16:26:23.880Z,6.93
2018-12-22T16:29:12.805Z,6.80
2018-12-22T16:31:53.230Z,5.20
2018-12-22T16:34:34.718Z,7.37
2018-12-22T16:37:21.164Z,7.10
2018-12-22T16:39:53.601Z,2.87
2018-12-22T16:42:36.419Z,5.33
2018-12-22T16:45:13.947Z,5.43
2018-12-22T16:47:46.020Z,8.00
2018-12-22T16:50:19.559Z,6.43
2018-12-22T16:52:54.560Z,3.87
2018-12-22T16:55:36.311Z,4.77
2018-12-22T16:58:20.652Z,6.97
2018-12-22T17:04:07.831Z,6.93
2018-12-22T17:06:49.678Z,3.17
2018-12-22T17:12:26.207Z,9.53
2018-12-22T17:15:08.613Z,5.77
2018-12-22T17:17:39.556Z,6.33
2018-12-22T17:20:14.459Z,7.57
2018-12-22T17:23:04.792Z,5.07
2018-12-22T17:25:50.583Z,9.43
2018-12-22T17:28:46.819Z,9.10
2018-12-22T17:31:20.788Z,9.73
2018-12-22T17:34:02.573Z,6.60
2018-12-22T17:36:44.355Z,10.93
2018-12-22T17:42:28.813Z,9.13
2018-12-22T17:45:16.021Z,7.63
2018-12-22T17:47:57.673Z,8.90
2018-12-22T17:50:32.017Z,8.20
2018-12-22T17:53:13.866Z,11.97
2018-12-22T17:55:55.755Z,18.27
2018-12-22T17:58:37.443Z,14.57
2018-12-22T18:01:10.631Z,12.40
2018-12-22T18:03:53.259Z,14.90
2018-12-22T18:06:35.250Z,10.57
2018-12-22T18:09:11.492Z,14.90
2018-12-22T18:11:44.647Z,24.53
2018-12-22T18:14:26.653Z,14.93
2018-12-22T18:17:01.099Z,12.53
2018-12-22T18:19:42.882Z,8.43
2018-12-22T18:22:24.323Z,8.40
2018-12-22T18:25:07.304Z,38.73
2018-12-22T18:27:48.820Z,10.23
2018-12-22T18:30:22.072Z,8.43
2018-12-22T18:33:04.045Z,9.73
2018-12-22T18:35:50.049Z,14.00
2018-12-22T18:38:25.676Z,8.03
2018-12-22T18:40:58.315Z,16.83
2018-12-22T18:43:40.459Z,14.53
2018-12-22T18:46:22.500Z,20.67
2018-12-22T18:48:57.831Z,23.87
2018-12-22T18:51:30.457Z,10.37
2018-12-22T18:54:11.573Z,6.47
2018-12-22T18:56:53.327Z,7.73
2018-12-22T18:59:35.343Z,17.23
2018-12-22T19:02:08.589Z,17.03
2018-12-22T19:04:39.766Z,6.57
2018-12-22T19:07:21.679Z,6.53
2018-12-22T19:10:03.328Z,5.80
2018-12-22T19:12:56.219Z,13.10
2018-12-22T19:15:38.217Z,12.97
2018-12-22T19:18:19.307Z,6.27
2018-12-22T19:20:54.739Z,6.93
2018-12-22T19:23:36.524Z,8.23
2018-12-22T19:26:18.456Z,15.93
2018-12-22T19:29:00.436Z,17.53
2018-12-22T19:31:41.569Z,22.37
2018-12-22T19:34:16.011Z,10.53
2018-12-22T19:36:51.426Z,10.73
2018-12-22T19:39:32.768Z,9.27
2018-12-22T19:42:06.177Z,10.93
2018-12-22T19:44:47.971Z,5.30
2018-12-22T19:47:19.127Z,5.23
2018-12-22T19:50:00.848Z,6.87
2018-12-22T19:52:42.757Z,5.77
2018-12-22T19:55:24.620Z,7.10
2018-12-22T19:58:06.663Z,5.33
2018-12-22T20:00:40.968Z,5.37
2018-12-22T20:03:12.048Z,4.80
2018-12-22T20:05:53.793Z,3.53
2018-12-22T20:08:29.421Z,5.47
2018-12-22T20:11:02.256Z,3.97
2018-12-22T20:13:44.189Z,4.70
2018-12-22T20:16:19.864Z,6.47
2018-12-22T20:19:01.369Z,4.80
2018-12-22T20:21:33.726Z,6.07
2018-12-22T20:24:15.624Z,8.87
2018-12-22T20:26:57.569Z,5.20
2018-12-22T20:29:39.675Z,5.67
2018-12-22T20:32:15.228Z,3.60
2018-12-22T20:34:45.981Z,7.07
2018-12-22T20:37:28.018Z,4.43
2018-12-22T20:40:01.347Z,4.17
2018-12-22T20:42:43.255Z,5.37
2018-12-22T20:45:14.498Z,2.43
2018-12-22T20:47:50.032Z,5.30
2018-12-22T20:50:22.719Z,8.20
2018-12-22T20:53:03.823Z,8.97
2018-12-22T20:55:45.675Z,4.10
2018-12-22T20:58:27.567Z,4.77
2018-12-22T21:01:00.707Z,5.93
2018-12-22T21:03:42.741Z,3.97
2018-12-22T21:06:26.068Z,5.90
2018-12-22T21:09:07.854Z,6.63
2018-12-22T21:11:40.714Z,2.53
2018-12-22T21:14:22.541Z,5.30
2018-12-22T21:16:53.789Z,6.47
2018-12-22T21:19:35.736Z,4.87
2018-12-22T21:22:08.770Z,20.80
2018-12-22T21:24:50.604Z,9.90
2018-12-22T21:27:23.000Z,25.80
2018-12-22T21:30:05.395Z,15.97
2018-12-22T21:32:46.915Z,21.53
2018-12-22T21:35:21.835Z,6.13
2018-12-22T21:38:03.011Z,5.23
2018-12-22T21:40:36.262Z,11.37
2018-12-22T21:43:18.221Z,5.37
2018-12-22T21:45:59.296Z,3.83
2018-12-22T21:48:41.204Z,4.83
2018-12-22T21:51:14.502Z,2.47
2018-12-22T21:53:56.362Z,10.37
2018-12-22T21:56:38.126Z,15.67
2018-12-22T21:59:21.920Z,12.90
2018-12-22T22:01:54.231Z,4.93
2018-12-22T22:04:37.011Z,8.00
2018-12-22T22:07:13.360Z,6.67
2018-12-22T22:09:57.355Z,8.30
2018-12-22T22:12:39.400Z,8.70
2018-12-22T22:15:15.191Z,6.60
2018-12-22T22:17:56.515Z,4.93
2018-12-22T22:20:31.280Z,7.30
2018-12-22T22:23:18.816Z,5.37
2018-12-22T22:25:55.912Z,6.20
2018-12-22T22:28:37.847Z,5.40
2018-12-22T22:31:11.067Z,6.83
2018-12-22T22:33:53.073Z,8.97
2018-12-22T22:36:35.084Z,8.20
2018-12-22T22:39:16.852Z,5.93
2018-12-22T22:41:49.921Z,5.53
2018-12-22T22:44:31.952Z,5.67
2018-12-22T22:47:13.820Z,5.23
2018-12-22T22:49:55.783Z,8.37
2018-12-22T22:52:30.496Z,4.23
2018-12-22T22:55:11.812Z,4.80
2018-12-22T22:57:55.152Z,5.80
2018-12-22T23:00:36.025Z,7.67
2018-12-22T23:03:07.291Z,7.87
2018-12-22T23:05:50.120Z,4.23
2018-12-22T23:08:37.165Z,6.47
2018-12-22T23:11:10.339Z,6.80
2018-12-22T23:13:52.149Z,4.93
2018-12-22T23:16:34.091Z,6.43
2018-12-22T23:19:16.186Z,7.93
2018-12-22T23:21:52.655Z,3.83
2018-12-22T23:27:34.113Z,6.70
2018-12-22T23:30:10.436Z,10.40
2018-12-22T23:32:52.259Z,5.77
2018-12-22T23:35:37.221Z,2.63
2018-12-22T23:38:08.159Z,4.03
2018-12-22T23:40:41.439Z,8.00
2018-12-22T23:43:23.223Z,13.23
2018-12-22T23:46:05.059Z,8.03
2018-12-22T23:48:46.125Z,5.10
2018-12-22T23:51:20.590Z,6.73
2018-12-22T23:54:02.649Z,6.77
2018-12-22T23:56:44.368Z,5.40
2018-12-22T23:59:17.971Z,5.53
